Time;durP1;ratioP1;P1;durP2;ratioP2;P2;SDS_P1;SDS_P2;PMS_P1;PMS_P2;Temp;Humidity;BMP_temperature;BMP_pressure;BME280_temperature;BME280_humidity;BME280_pressure;Samples;Min_cycle;Max_cycle;Signal;HPM_P1;HPM_P2
2022/06/20 00:02:22;;;;;;;9.33;4.00;;;22.70;93.30;;;;;;4995613;28;20599;-75
2022/06/20 00:04:52;;;;;;;10.47;4.07;;;22.70;93.30;;;;;;4995265;28;20199;-74
2022/06/20 00:07:20;;;;;;;8.47;4.17;;;22.60;93.40;;;;;;5013149;28;20242;-75
2022/06/20 00:09:48;;;;;;;12.47;4.13;;;22.60;93.50;;;;;;4995190;28;20310;-74
2022/06/20 00:12:22;;;;;;;7.43;3.90;;;22.60;93.70;;;;;;4995706;28;20275;-74
2022/06/20 00:14:57;;;;;;;7.57;4.20;;;22.50;93.80;;;;;;4995098;28;20303;-75
2022/06/20 00:17:25;;;;;;;8.73;3.93;;;22.40;94.00;;;;;;4995679;28;20235;-74
2022/06/20 00:19:53;;;;;;;11.43;3.93;;;22.40;94.20;;;;;;4995652;28;20207;-73
2022/06/20 00:22:20;;;;;;;8.27;4.00;;;22.40;94.30;;;;;;4995148;28;20283;-75
2022/06/20 00:24:46;;;;;;;8.73;3.93;;;22.40;94.30;;;;;;4995135;28;20296;-75
2022/06/20 00:27:13;;;;;;;9.00;3.93;;;22.30;94.50;;;;;;4995122;28;20196;-76
2022/06/20 00:29:42;;;;;;;8.53;4.60;;;22.30;94.80;;;;;;4995810;28;20345;-77
2022/06/20 00:32:10;;;;;;;9.47;4.27;;;22.20;94.90;;;;;;4983709;28;20227;-77
2022/06/20 00:34:37;;;;;;;10.27;3.90;;;22.20;95.10;;;;;;4999604;28;20304;-75
2022/06/20 00:37:06;;;;;;;9.10;4.27;;;22.20;95.10;;;;;;4999280;28;20646;-76
2022/06/20 00:39:33;;;;;;;8.50;4.17;;;22.10;95.20;;;;;;4999564;28;20212;-76
2022/06/20 00:42:02;;;;;;;5.80;3.80;;;22.10;95.50;;;;;;4999294;28;20239;-77
2022/06/20 00:44:35;;;;;;;5.53;4.03;;;22.00;95.80;;;;;;4998511;28;20259;-77
2022/06/20 00:47:08;;;;;;;8.07;4.20;;;21.90;96.00;;;;;;4998500;28;20196;-76
2022/06/20 00:49:58;;;;;;;8.20;4.10;;;21.90;96.20;;;;;;4998475;28;20259;-76
2022/06/20 00:52:43;;;;;;;7.37;3.97;;;21.90;96.40;;;;;;5016333;28;20231;-76
2022/06/20 00:55:24;;;;;;;11.13;4.10;;;21.90;96.40;;;;;;5015875;28;20801;-78
2022/06/20 00:58:09;;;;;;;7.67;4.37;;;21.80;96.70;;;;;;4998143;28;20705;-76
2022/06/20 01:00:38;;;;;;;10.37;4.10;;;21.80;96.90;;;;;;4998409;28;20230;-77
2022/06/20 01:03:16;;;;;;;8.70;4.50;;;21.70;97.20;;;;;;4998483;28;20231;-77
2022/06/20 01:05:47;;;;;;;7.77;3.97;;;21.70;97.50;;;;;;4997868;28;20222;-76
2022/06/20 01:08:18;;;;;;;5.53;4.10;;;21.70;97.80;;;;;;4997862;28;20286;-77
2022/06/20 01:11:11;;;;;;;8.87;4.53;;;21.60;97.90;;;;;;4998211;28;20242;-77
2022/06/20 01:13:39;;;;;;;9.13;4.23;;;21.50;98.20;;;;;;4998007;28;20239;-77
2022/06/20 01:16:15;;;;;;;10.03;4.23;;;21.40;98.30;;;;;;5015579;28;20199;-77
2022/06/20 01:18:47;;;;;;;15.07;4.50;;;21.40;99.20;;;;;;4998184;28;20250;-77
2022/06/20 01:21:17;;;;;;;7.57;4.00;;;21.40;99.20;;;;;;4997831;28;20291;-77
2022/06/20 01:24:05;;;;;;;9.83;4.23;;;21.40;98.80;;;;;;5015495;28;20192;-78
2022/06/20 01:27:14;;;;;;;6.20;4.03;;;21.50;99.00;;;;;;4997844;28;20218;-78
2022/06/20 01:29:41;;;;;;;7.27;4.20;;;21.40;99.40;;;;;;4997876;28;20242;-78
2022/06/20 01:32:09;;;;;;;8.80;4.43;;;21.20;99.80;;;;;;4981551;28;20640;-78
2022/06/20 01:34:36;;;;;;;6.47;4.30;;;21.30;99.90;;;;;;4997545;28;20196;-78
2022/06/20 01:37:23;;;;;;;9.60;4.43;;;21.20;99.90;;;;;;5015476;28;20223;-79
2022/06/20 01:39:54;;;;;;;10.07;4.77;;;21.20;99.90;;;;;;4997509;28;20572;-78
2022/06/20 01:42:23;;;;;;;8.63;4.20;;;21.10;99.90;;;;;;4997635;28;20288;-76
2022/06/20 01:44:58;;;;;;;6.50;4.03;;;21.10;99.90;;;;;;4997564;28;20200;-76
2022/06/20 01:47:25;;;;;;;13.17;4.70;;;21.10;99.90;;;;;;5015106;28;20278;-76
2022/06/20 01:49:56;;;;;;;5.97;4.03;;;21.00;99.90;;;;;;4997257;28;20228;-76
2022/06/20 01:52:29;;;;;;;9.60;4.43;;;20.90;99.90;;;;;;5015016;28;20188;-77
2022/06/20 01:55:06;;;;;;;8.60;4.40;;;21.00;99.90;;;;;;4997186;28;20331;-77
2022/06/20 01:57:35;;;;;;;8.10;4.47;;;20.90;99.90;;;;;;5014739;28;20212;-78
2022/06/20 02:00:07;;;;;;;13.17;4.97;;;20.80;99.90;;;;;;4997202;28;20208;-79
2022/06/20 02:02:39;;;;;;;7.07;4.87;;;20.80;99.90;;;;;;5014748;28;20653;-77
2022/06/20 02:05:14;;;;;;;11.37;4.63;;;20.80;99.90;;;;;;4997075;28;20199;-79
2022/06/20 02:07:42;;;;;;;9.37;4.70;;;20.80;99.90;;;;;;4997131;28;20249;-79
2022/06/20 02:10:14;;;;;;;7.23;4.53;;;20.80;99.90;;;;;;5014525;28;20620;-76
2022/06/20 02:12:41;;;;;;;10.10;4.40;;;20.80;99.90;;;;;;4997060;28;20204;-77
2022/06/20 02:15:14;;;;;;;8.00;4.40;;;20.80;99.90;;;;;;4978080;28;20204;-76
2022/06/20 02:17:45;;;;;;;8.40;4.70;;;20.80;99.90;;;;;;4980356;28;20291;-75
2022/06/20 02:20:18;;;;;;;8.00;4.47;;;20.80;99.90;;;;;;4996556;28;20615;-75
2022/06/20 02:22:48;;;;;;;9.53;5.20;;;20.80;99.90;;;;;;5014502;28;20640;-76
2022/06/20 02:25:19;;;;;;;9.70;4.60;;;20.70;99.90;;;;;;4996448;28;20296;-76
2022/06/20 02:27:51;;;;;;;9.67;4.90;;;20.70;99.90;;;;;;5013953;28;20311;-76
2022/06/20 02:30:17;;;;;;;9.33;4.60;;;20.70;99.90;;;;;;4996405;28;20586;-78
2022/06/20 02:32:54;;;;;;;7.57;4.77;;;20.70;99.90;;;;;;4996614;28;20191;-78
2022/06/20 02:35:22;;;;;;;6.47;4.70;;;20.70;99.90;;;;;;4996594;28;20641;-78
2022/06/20 02:37:49;;;;;;;9.47;4.77;;;20.60;99.90;;;;;;4996634;28;20192;-79
2022/06/20 02:40:19;;;;;;;5.53;4.47;;;20.60;99.90;;;;;;5014418;28;20638;-78
2022/06/20 02:43:05;;;;;;;6.33;4.67;;;20.70;99.90;;;;;;4996838;28;20283;-78
2022/06/20 02:45:34;;;;;;;7.13;5.10;;;20.70;99.90;;;;;;4997698;28;20619;-77
2022/06/20 02:48:04;;;;;;;7.53;4.70;;;20.60;99.90;;;;;;4997060;28;20283;-79
2022/06/20 02:50:55;;;;;;;7.13;4.60;;;20.50;99.90;;;;;;4996592;28;20248;-79
2022/06/20 02:53:30;;;;;;;7.97;4.70;;;20.60;99.90;;;;;;4979695;28;20642;-77
2022/06/20 02:55:57;;;;;;;8.13;4.40;;;20.60;99.90;;;;;;4996013;28;20232;-76
2022/06/20 02:58:30;;;;;;;9.57;4.90;;;20.60;99.90;;;;;;5013864;28;20295;-76
2022/06/20 03:01:38;;;;;;;6.13;5.03;;;20.60;99.90;;;;;;4996090;28;20234;-75
2022/06/20 03:04:08;;;;;;;7.20;4.93;;;20.50;99.90;;;;;;4952918;29;20209;-76
2022/06/20 03:06:56;;;;;;;10.00;5.37;;;20.40;99.90;;;;;;4953079;29;20233;-76
2022/06/20 03:09:37;;;;;;;9.90;4.93;;;20.40;99.90;;;;;;4937438;29;20222;-76
2022/06/20 03:12:05;;;;;;;10.90;5.77;;;20.40;99.90;;;;;;4953205;29;20721;-76
2022/06/20 03:14:46;;;;;;;9.60;5.37;;;20.40;99.90;;;;;;4936931;29;20197;-76
2022/06/20 03:17:17;;;;;;;9.90;6.00;;;20.40;99.90;;;;;;4936873;29;20202;-75
2022/06/20 03:19:48;;;;;;;10.60;5.50;;;20.40;99.90;;;;;;4953000;29;20210;-78
2022/06/20 03:22:19;;;;;;;10.57;5.63;;;20.40;99.90;;;;;;4937104;29;20290;-78
2022/06/20 03:24:49;;;;;;;11.93;5.47;;;20.40;99.90;;;;;;4936799;29;20202;-76
2022/06/20 03:27:24;;;;;;;9.83;5.20;;;20.30;99.90;;;;;;4952612;29;20206;-76
2022/06/20 03:29:57;;;;;;;11.63;5.10;;;20.40;99.90;;;;;;4952904;29;20233;-76
2022/06/20 03:32:25;;;;;;;8.23;4.87;;;20.50;99.90;;;;;;4952847;29;20201;-76
2022/06/20 03:34:53;;;;;;;9.30;4.80;;;20.60;99.90;;;;;;4936480;29;20331;-77
2022/06/20 03:37:21;;;;;;;8.73;5.30;;;20.70;99.90;;;;;;4953096;29;20201;-77
2022/06/20 03:39:50;;;;;;;8.50;4.90;;;20.80;99.90;;;;;;4953216;28;20234;-77
2022/06/20 03:42:17;;;;;;;13.53;5.60;;;20.90;99.90;;;;;;4996029;28;20295;-77
2022/06/20 03:44:50;;;;;;;8.23;4.80;;;21.00;99.90;;;;;;4995761;28;20208;-75
2022/06/20 03:47:25;;;;;;;11.93;5.20;;;21.00;99.90;;;;;;4995475;28;20668;-74
2022/06/20 03:50:03;;;;;;;9.03;4.47;;;21.10;99.90;;;;;;4995717;28;20262;-74
2022/06/20 03:52:47;;;;;;;10.97;4.90;;;21.10;99.90;;;;;;4995311;28;20294;-75
2022/06/20 03:55:36;;;;;;;12.60;4.77;;;21.10;99.90;;;;;;5012943;28;20231;-76
2022/06/20 03:58:27;;;;;;;9.33;4.70;;;21.10;99.90;;;;;;4979052;28;20323;-76
2022/06/20 04:00:58;;;;;;;9.23;5.20;;;21.20;99.90;;;;;;4995274;28;20285;-76
2022/06/20 04:03:33;;;;;;;9.23;5.00;;;21.10;99.90;;;;;;5013301;28;20195;-76
2022/06/20 04:06:25;;;;;;;10.87;4.97;;;21.10;99.90;;;;;;4981977;28;20247;-76
2022/06/20 04:11:57;;;;;;;16.20;5.00;;;21.20;99.90;;;;;;4999007;28;20200;-76
2022/06/20 04:14:46;;;;;;;9.10;4.50;;;21.20;99.90;;;;;;5016793;28;20196;-77
2022/06/20 04:20:45;;;;;;;9.43;4.60;;;21.20;99.90;;;;;;4998973;28;20579;-76
2022/06/20 04:23:17;;;;;;;12.27;4.37;;;21.10;99.90;;;;;;4999167;28;20212;-76
2022/06/20 04:25:58;;;;;;;11.83;4.87;;;21.20;99.90;;;;;;5016644;28;20192;-77
2022/06/20 04:28:51;;;;;;;11.97;4.63;;;21.10;99.90;;;;;;4999120;28;20251;-77
2022/06/20 04:31:37;;;;;;;7.13;4.33;;;21.20;99.90;;;;;;4998713;28;20224;-77
2022/06/20 04:34:33;;;;;;;11.00;4.30;;;21.30;99.90;;;;;;4998864;28;20210;-76
2022/06/20 04:37:23;;;;;;;8.33;4.67;;;21.30;99.90;;;;;;4955891;29;20225;-76
2022/06/20 04:40:12;;;;;;;9.87;5.03;;;21.30;99.90;;;;;;4955757;29;20652;-76
2022/06/20 04:42:45;;;;;;;10.33;4.50;;;21.50;99.90;;;;;;4939653;29;20232;-76
2022/06/20 04:45:21;;;;;;;17.47;4.93;;;21.70;99.90;;;;;;4939713;29;20297;-77
2022/06/20 04:47:57;;;;;;;14.80;4.73;;;21.70;99.90;;;;;;4955634;29;20748;-77
2022/06/20 04:50:27;;;;;;;11.23;4.67;;;21.60;99.90;;;;;;4955452;29;20702;-77
2022/06/20 04:52:59;;;;;;;10.77;4.57;;;21.50;99.90;;;;;;4939699;29;20305;-76
2022/06/20 04:55:28;;;;;;;11.70;4.47;;;21.70;99.90;;;;;;4940011;29;20328;-83
2022/06/20 04:57:58;;;;;;;9.20;4.40;;;21.50;99.90;;;;;;4956572;29;20238;-83
2022/06/20 05:00:29;;;;;;;10.50;4.70;;;21.60;99.90;;;;;;4940956;29;20206;-82
2022/06/20 05:02:57;;;;;;;10.93;4.80;;;21.50;99.90;;;;;;4957366;29;20194;-80
2022/06/20 05:05:30;;;;;;;11.17;4.73;;;21.40;99.90;;;;;;4941137;29;20206;-83
2022/06/20 05:07:59;;;;;;;12.27;4.80;;;21.30;99.90;;;;;;4957432;29;20652;-81
2022/06/20 05:10:40;;;;;;;7.40;4.40;;;21.00;99.90;;;;;;4956184;29;20317;-82
2022/06/20 05:13:48;;;;;;;11.07;5.10;;;20.90;99.90;;;;;;4965741;28;20208;-81
2022/06/20 05:16:19;;;;;;;13.90;4.50;;;21.00;99.90;;;;;;4953092;28;20199;-80
2022/06/20 05:18:56;;;;;;;9.93;4.70;;;21.00;99.90;;;;;;4940111;29;20317;-79
2022/06/20 05:21:31;;;;;;;13.33;4.80;;;20.90;99.90;;;;;;4939836;29;20241;-81
2022/06/20 05:24:05;;;;;;;10.33;4.50;;;21.10;99.90;;;;;;4940363;29;20228;-82
2022/06/20 05:26:38;;;;;;;12.43;4.30;;;21.10;99.90;;;;;;4940145;29;20228;-84
2022/06/20 05:29:10;;;;;;;10.50;4.60;;;21.20;99.90;;;;;;4970869;29;20194;-79
2022/06/20 05:31:49;;;;;;;19.27;5.20;;;21.20;99.90;;;;;;4956070;29;20210;-84
2022/06/20 05:34:25;;;;;;;9.87;4.47;;;21.20;99.90;;;;;;4939318;29;20572;-79
2022/06/20 05:37:22;;;;;;;13.13;4.30;;;21.20;99.90;;;;;;4948682;29;20245;-81
2022/06/20 05:39:54;;;;;;;9.17;4.63;;;21.40;99.90;;;;;;4954889;29;20687;-78
2022/06/20 05:42:21;;;;;;;11.97;4.77;;;21.40;99.90;;;;;;4938842;29;20297;-79
2022/06/20 05:44:49;;;;;;;9.87;4.73;;;21.50;99.90;;;;;;4943221;29;20229;-78
2022/06/20 05:47:28;;;;;;;15.00;5.43;;;21.50;99.90;;;;;;4939567;29;20206;-75
2022/06/20 05:50:23;;;;;;;11.57;4.90;;;21.60;99.90;;;;;;4969231;28;20279;-76
2022/06/20 05:52:51;;;;;;;15.13;4.93;;;21.30;99.90;;;;;;4978019;28;20236;-76
2022/06/20 05:55:28;;;;;;;14.93;4.30;;;21.30;99.90;;;;;;4979602;28;20232;-77
2022/06/20 05:57:58;;;;;;;11.73;4.60;;;21.50;99.90;;;;;;4962019;28;20229;-76
2022/06/20 06:00:30;;;;;;;10.43;4.37;;;21.80;99.90;;;;;;4977885;28;20284;-77
2022/06/20 06:03:16;;;;;;;9.57;4.67;;;21.90;99.90;;;;;;4978259;28;20649;-77
2022/06/20 06:05:54;;;;;;;14.10;5.13;;;22.10;99.90;;;;;;4994988;28;20189;-77
2022/06/20 06:08:24;;;;;;;11.30;5.10;;;22.00;99.90;;;;;;5003613;28;20195;-80
2022/06/20 06:11:23;;;;;;;11.37;4.40;;;21.80;99.90;;;;;;5021199;28;20319;-76
2022/06/20 06:13:58;;;;;;;11.53;4.03;;;21.70;99.90;;;;;;5014953;28;20191;-77
2022/06/20 06:16:47;;;;;;;11.07;4.20;;;22.10;99.90;;;;;;5001761;28;20213;-83
2022/06/20 06:19:32;;;;;;;11.83;4.23;;;22.40;99.90;;;;;;5018101;28;20352;-78
2022/06/20 06:22:12;;;;;;;12.13;4.50;;;22.70;99.90;;;;;;5023016;28;20226;-78
2022/06/20 06:24:44;;;;;;;12.33;4.80;;;22.70;99.90;;;;;;5007259;28;20291;-80
2022/06/20 06:27:23;;;;;;;10.33;5.10;;;22.40;99.90;;;;;;4999196;28;20692;-79
2022/06/20 06:30:01;;;;;;;12.80;4.30;;;22.10;99.90;;;;;;4996879;28;20235;-76
2022/06/20 06:32:43;;;;;;;12.20;4.77;;;22.30;99.90;;;;;;4996936;28;20263;-79
2022/06/20 06:35:29;;;;;;;12.80;4.50;;;22.40;99.90;;;;;;4980525;28;20227;-80
2022/06/20 06:38:05;;;;;;;11.40;4.77;;;22.40;99.90;;;;;;5025240;28;20196;-80
2022/06/20 06:40:46;;;;;;;12.53;5.00;;;22.50;99.90;;;;;;4997052;28;20259;-81
2022/06/20 06:43:20;;;;;;;8.67;4.50;;;22.50;99.90;;;;;;4996636;28;20246;-78
2022/06/20 06:45:52;;;;;;;11.53;5.10;;;22.50;99.90;;;;;;4996583;28;20204;-80
2022/06/20 06:48:39;;;;;;;10.70;5.50;;;22.50;99.90;;;;;;5013464;28;20250;-78
2022/06/20 06:51:11;;;;;;;7.50;4.90;;;22.50;99.90;;;;;;4996260;28;20231;-79
2022/06/20 06:54:00;;;;;;;14.00;5.00;;;22.50;99.90;;;;;;4996468;28;20227;-77
2022/06/20 06:56:42;;;;;;;9.53;4.90;;;22.50;99.90;;;;;;4994979;28;20230;-76
2022/06/20 06:59:22;;;;;;;13.80;5.33;;;22.70;99.90;;;;;;4999841;28;20239;-77
2022/06/20 07:01:55;;;;;;;12.73;5.47;;;22.70;99.90;;;;;;5000472;28;20254;-76
2022/06/20 07:04:28;;;;;;;13.90;5.77;;;22.70;99.90;;;;;;4996090;28;20214;-78
2022/06/20 07:07:14;;;;;;;10.50;4.93;;;22.60;99.90;;;;;;5013443;28;20196;-77
2022/06/20 07:09:50;;;;;;;13.60;5.07;;;22.60;99.90;;;;;;4999721;28;20319;-76
2022/06/20 07:12:24;;;;;;;9.73;5.00;;;22.60;99.90;;;;;;5008861;28;20208;-79
2022/06/20 07:15:12;;;;;;;17.93;5.20;;;22.70;99.90;;;;;;5014077;28;20653;-75
2022/06/20 07:17:47;;;;;;;14.83;5.37;;;22.60;99.90;;;;;;5012404;28;20299;-76
2022/06/20 07:20:14;;;;;;;11.43;4.73;;;22.50;99.90;;;;;;4992462;28;20696;-73
2022/06/20 07:22:44;;;;;;;14.57;5.10;;;22.40;99.90;;;;;;4976694;28;20208;-78
2022/06/20 07:25:22;;;;;;;13.30;5.10;;;22.50;99.90;;;;;;4960334;28;20232;-75
2022/06/20 07:28:18;;;;;;;14.93;4.93;;;22.50;99.90;;;;;;4976247;28;20232;-75
2022/06/20 07:30:51;;;;;;;9.87;4.50;;;22.70;99.90;;;;;;4992883;28;20225;-77
2022/06/20 07:33:31;;;;;;;12.30;5.20;;;22.90;99.90;;;;;;4978436;28;20604;-81
2022/06/20 07:36:04;;;;;;;13.50;6.20;;;22.90;99.90;;;;;;4995654;28;20199;-75
2022/06/20 07:38:38;;;;;;;11.37;5.20;;;22.90;99.90;;;;;;4995335;28;20206;-73
2022/06/20 07:41:13;;;;;;;13.03;4.90;;;22.70;99.90;;;;;;5013531;28;20191;-80
2022/06/20 07:43:43;;;;;;;13.47;5.10;;;23.00;99.90;;;;;;4995540;28;20485;-79
2022/06/20 07:46:23;;;;;;;10.77;5.10;;;23.20;99.90;;;;;;4995916;28;20200;-76
2022/06/20 07:48:54;;;;;;;11.07;5.10;;;23.60;99.90;;;;;;5012110;28;20211;-78
2022/06/20 07:51:35;;;;;;;14.47;5.27;;;23.80;99.90;;;;;;4995859;28;20251;-81
2022/06/20 07:54:27;;;;;;;11.37;5.57;;;23.80;99.90;;;;;;4995669;28;20216;-80
2022/06/20 07:57:06;;;;;;;10.50;5.17;;;23.70;99.90;;;;;;4996278;28;20212;-79
2022/06/20 07:59:57;;;;;;;13.27;5.45;;;23.60;99.90;;;;;;5002475;28;20192;-78
2022/06/20 08:02:40;;;;;;;11.77;4.83;;;23.70;99.90;;;;;;5011798;28;20236;-80
2022/06/20 08:05:12;;;;;;;8.50;4.80;;;23.90;99.90;;;;;;4995945;28;20683;-79
2022/06/20 08:07:48;;;;;;;9.50;5.30;;;24.00;99.90;;;;;;5011942;28;20254;-80
2022/06/20 08:10:34;;;;;;;13.63;5.30;;;24.10;99.90;;;;;;5011664;28;20255;-80
2022/06/20 08:13:16;;;;;;;9.70;4.93;;;24.10;99.90;;;;;;5011814;28;20295;-81
2022/06/20 08:15:59;;;;;;;9.87;4.90;;;24.10;99.90;;;;;;5013124;28;20262;-81
2022/06/20 08:18:27;;;;;;;14.27;5.65;;;24.30;99.90;;;;;;5012592;28;20703;-78
2022/06/20 08:21:12;;;;;;;13.73;5.30;;;24.40;99.90;;;;;;4994332;28;20199;-80
2022/06/20 08:23:58;;;;;;;15.10;5.32;;;24.40;99.90;;;;;;5005763;28;20200;-79
2022/06/20 08:26:32;;;;;;;10.57;4.97;;;24.60;99.90;;;;;;5003661;28;20268;-81
2022/06/20 08:29:06;;;;;;;8.95;4.68;;;25.20;99.90;;;;;;4996235;28;20680;-81
2022/06/20 08:31:45;;;;;;;9.93;4.82;;;26.00;99.90;;;;;;4995208;28;20597;-78
2022/06/20 08:34:44;;;;;;;9.75;4.40;;;26.50;99.90;;;;;;4995256;28;20270;-80
2022/06/20 08:37:24;;;;;;;12.88;4.70;;;27.20;99.90;;;;;;4998026;28;20243;-80
2022/06/20 08:40:20;;;;;;;9.32;4.72;;;27.30;99.90;;;;;;5001640;28;20204;-77
2022/06/20 08:43:24;;;;;;;10.30;4.47;;;27.60;99.90;;;;;;4997226;28;20204;-79
2022/06/20 08:46:17;;;;;;;11.27;4.75;;;27.80;99.90;;;;;;4995291;28;20673;-80
2022/06/20 08:49:10;;;;;;;14.38;4.28;;;27.90;99.90;;;;;;4994960;28;20526;-80
2022/06/20 08:52:07;;;;;;;10.25;4.65;;;28.30;99.90;;;;;;4989497;28;20220;-83
2022/06/20 08:55:06;;;;;;;14.88;5.07;;;28.20;99.90;;;;;;4998526;28;20696;-81
2022/06/20 08:57:45;;;;;;;11.45;4.13;;;27.90;99.90;;;;;;4998685;28;20315;-80
2022/06/20 09:00:50;;;;;;;12.57;4.38;;;27.80;99.90;;;;;;4999157;28;20638;-82
2022/06/20 09:03:17;;;;;;;10.00;4.40;;;28.20;99.90;;;;;;5017087;28;20282;-78
2022/06/20 09:06:07;;;;;;;13.50;4.80;;;28.40;99.90;;;;;;4998335;28;20302;-80
2022/06/20 09:09:02;;;;;;;10.45;4.05;;;28.20;99.90;;;;;;4998841;28;20192;-76
2022/06/20 09:12:00;;;;;;;10.57;4.40;;;28.20;99.90;;;;;;4998860;28;20278;-77
2022/06/20 09:14:48;;;;;;;14.40;4.50;;;28.40;99.90;;;;;;4997884;28;20523;-73
2022/06/20 09:17:30;;;;;;;10.20;4.40;;;28.90;99.90;;;;;;4998622;28;20212;-83
2022/06/20 09:20:11;;;;;;;7.95;3.97;;;29.20;99.90;;;;;;5015946;28;20516;-74
2022/06/20 09:22:50;;;;;;;8.15;4.18;;;29.50;99.90;;;;;;4998142;28;20192;-81
2022/06/20 09:25:58;;;;;;;10.70;4.40;;;29.80;99.90;;;;;;5016652;28;20667;-79
2022/06/20 09:28:28;;;;;;;10.38;4.05;;;30.20;99.90;;;;;;4936181;29;20207;-81
2022/06/20 09:31:29;;;;;;;7.50;4.10;;;30.60;99.90;;;;;;4926228;29;20238;-78
2022/06/20 09:34:27;;;;;;;14.88;4.20;;;30.60;99.90;;;;;;4931983;29;20202;-84
2022/06/20 09:37:05;;;;;;;9.20;4.30;;;31.00;99.90;;;;;;4921504;29;20207;-82
2022/06/20 09:39:48;;;;;;;11.35;4.00;;;30.80;99.90;;;;;;4920683;29;20226;-80
2022/06/20 09:42:38;;;;;;;11.93;4.20;;;30.60;99.90;;;;;;4921655;29;20297;-85
2022/06/20 09:45:22;;;;;;;9.25;4.40;;;30.70;99.90;;;;;;4920919;29;20231;-82
2022/06/20 09:47:49;;;;;;;11.98;3.88;;;31.30;99.90;;;;;;4936350;29;20202;-81
2022/06/20 09:50:44;;;;;;;10.35;3.95;;;31.60;99.90;;;;;;4940586;29;20685;-78
2022/06/20 09:53:34;;;;;;;12.02;4.30;;;31.80;99.90;;;;;;4936506;29;20207;-79
2022/06/20 09:56:10;;;;;;;15.38;4.22;;;31.90;99.80;;;;;;4900757;29;20591;-78
2022/06/20 09:58:46;;;;;;;9.77;4.43;;;31.40;99.70;;;;;;4900432;29;20312;-79
2022/06/20 10:01:29;;;;;;;8.48;4.40;;;30.80;99.10;;;;;;4916676;29;20226;-79
2022/06/20 10:04:11;;;;;;;10.20;4.50;;;29.50;99.90;;;;;;4916362;29;20207;-77
2022/06/20 10:06:57;;;;;;;10.65;4.35;;;29.70;99.90;;;;;;4975608;28;20281;-82
2022/06/20 10:09:49;;;;;;;11.00;4.22;;;29.60;99.90;;;;;;4977751;28;20303;-72
2022/06/20 10:12:25;;;;;;;8.88;4.20;;;29.70;99.90;;;;;;4977437;28;20253;-75
2022/06/20 10:15:12;;;;;;;9.45;4.05;;;29.30;99.90;;;;;;4976681;28;20299;-71
2022/06/20 10:17:55;;;;;;;8.85;3.95;;;29.50;99.90;;;;;;4993860;28;20193;-78
2022/06/20 10:20:40;;;;;;;9.10;4.68;;;29.70;99.90;;;;;;4977646;28;20239;-80
2022/06/20 10:23:16;;;;;;;15.23;4.93;;;30.00;99.90;;;;;;4978498;28;20296;-78
2022/06/20 10:25:43;;;;;;;8.85;4.60;;;29.80;99.90;;;;;;4979752;28;20731;-77
2022/06/20 10:28:34;;;;;;;11.43;4.47;;;30.00;99.90;;;;;;4999605;28;20228;-80
2022/06/20 10:31:25;;;;;;;11.30;4.40;;;30.60;99.40;;;;;;4961043;28;20252;-72
2022/06/20 10:34:10;;;;;;;11.25;4.60;;;31.00;98.70;;;;;;4977804;28;20204;-76
2022/06/20 10:37:03;;;;;;;11.98;4.82;;;31.60;97.60;;;;;;4978542;28;20319;-79
2022/06/20 10:40:07;;;;;;;8.23;4.47;;;32.00;96.80;;;;;;4978311;28;20243;-78
2022/06/20 10:43:10;;;;;;;10.05;4.20;;;32.10;96.10;;;;;;4977869;28;20665;-79
2022/06/20 10:46:08;;;;;;;12.15;4.47;;;32.70;97.10;;;;;;4976535;28;20205;-74
2022/06/20 10:49:07;;;;;;;11.73;4.72;;;33.30;95.30;;;;;;4994393;28;20239;-79
2022/06/20 10:52:03;;;;;;;10.10;4.50;;;33.70;94.30;;;;;;4977448;28;20255;-85
2022/06/20 10:54:45;;;;;;;9.10;4.20;;;34.20;94.60;;;;;;4983778;28;20318;-75
2022/06/20 10:57:43;;;;;;;14.05;4.80;;;34.60;92.40;;;;;;4995734;28;20768;-78
2022/06/20 11:00:16;;;;;;;12.38;4.47;;;35.10;90.60;;;;;;4917690;29;20209;-78
2022/06/20 11:02:57;;;;;;;14.82;4.60;;;35.40;88.90;;;;;;4935616;29;20215;-74
2022/06/20 11:05:42;;;;;;;15.32;5.05;;;35.40;89.50;;;;;;4935052;29;20195;-75
2022/06/20 11:08:26;;;;;;;10.10;4.68;;;35.00;89.50;;;;;;4935362;29;20282;-77
2022/06/20 11:11:03;;;;;;;14.10;5.03;;;34.20;90.70;;;;;;4917429;29;20222;-76
2022/06/20 11:13:48;;;;;;;15.20;5.20;;;33.50;92.00;;;;;;4933168;29;20639;-75
2022/06/20 11:16:26;;;;;;;12.73;5.53;;;32.80;92.60;;;;;;4933324;29;20270;-76
2022/06/20 11:19:03;;;;;;;12.75;5.72;;;31.90;93.70;;;;;;4917452;29;20253;-72
2022/06/20 11:21:50;;;;;;;13.25;5.40;;;31.10;95.20;;;;;;4933273;29;20644;-75
2022/06/20 11:24:39;;;;;;;10.00;5.95;;;30.40;97.10;;;;;;4933965;29;20211;-76
2022/06/20 11:27:14;;;;;;;15.52;7.13;;;29.30;99.50;;;;;;4918145;29;20238;-74
2022/06/20 11:30:32;;;;;;;9.32;6.15;;;28.50;99.90;;;;;;4934104;29;20291;-70
2022/06/20 11:33:05;;;;;;;9.85;7.78;;;27.70;99.90;;;;;;4877144;29;20200;-73
2022/06/20 11:35:53;;;;;;;10.05;6.82;;;26.40;99.90;;;;;;4876807;29;20678;-66
2022/06/20 11:38:25;;;;;;;14.38;8.32;;;25.60;99.90;;;;;;4917501;29;20667;-73
2022/06/20 11:41:00;;;;;;;13.90;8.48;;;24.90;99.90;;;;;;4917800;29;20314;-81
2022/06/20 11:44:06;;;;;;;11.88;7.85;;;24.50;99.90;;;;;;4918584;29;20554;-76
2022/06/20 11:46:42;;;;;;;12.13;7.63;;;24.20;99.90;;;;;;4902859;29;20359;-75
2022/06/20 11:49:15;;;;;;;12.27;7.13;;;24.20;99.90;;;;;;4902696;29;20657;-74
2022/06/20 11:51:50;;;;;;;11.40;6.78;;;24.10;99.90;;;;;;4934645;29;20680;-75
2022/06/20 11:54:25;;;;;;;8.80;6.37;;;24.20;99.90;;;;;;4920446;29;20246;-74
2022/06/20 11:57:18;;;;;;;10.07;6.50;;;24.50;99.90;;;;;;4930202;29;20210;-85
2022/06/20 12:00:14;;;;;;;8.30;6.23;;;24.70;99.90;;;;;;4949598;29;20203;-85
2022/06/20 12:02:56;;;;;;;11.07;6.13;;;24.60;99.90;;;;;;4959924;28;20214;-87
2022/06/20 12:05:36;;;;;;;9.48;5.80;;;24.60;99.90;;;;;;5015149;28;20283;-80
2022/06/20 12:08:29;;;;;;;8.73;5.85;;;24.50;99.90;;;;;;4996234;28;20564;-74
2022/06/20 12:11:07;;;;;;;8.27;5.97;;;24.40;99.90;;;;;;5013369;28;20750;-76
2022/06/20 12:13:46;;;;;;;9.75;6.15;;;24.20;99.90;;;;;;4996470;28;20251;-76
2022/06/20 12:16:26;;;;;;;9.13;5.15;;;23.90;99.90;;;;;;5006829;28;20234;-84
2022/06/20 12:24:41;;;;;;;8.83;5.73;;;23.50;99.90;;;;;;5014322;28;20621;-77
2022/06/20 12:27:17;;;;;;;8.70;4.90;;;23.10;99.90;;;;;;5000236;28;20227;-72
2022/06/20 12:29:46;;;;;;;9.87;5.77;;;23.00;99.90;;;;;;5017670;28;20204;-82
2022/06/20 12:32:17;;;;;;;12.33;5.60;;;22.80;99.90;;;;;;5016665;28;20657;-77
2022/06/20 12:34:59;;;;;;;9.97;5.37;;;22.80;99.90;;;;;;5008970;28;20226;-74
2022/06/20 12:37:40;;;;;;;8.00;5.20;;;22.60;99.90;;;;;;5016976;28;20223;-79
2022/06/20 12:40:28;;;;;;;7.57;4.83;;;22.50;99.90;;;;;;5016740;28;20613;-77
2022/06/20 12:43:12;;;;;;;9.43;5.33;;;22.40;99.90;;;;;;5032392;28;20657;-77
2022/06/20 12:46:34;;;;;;;11.27;5.10;;;22.10;99.90;;;;;;5015208;28;20635;-83
2022/06/20 12:49:26;;;;;;;9.87;4.60;;;21.90;99.90;;;;;;4884093;29;20204;-77
2022/06/20 12:52:21;;;;;;;13.20;5.80;;;21.90;99.90;;;;;;4890797;29;20280;-70
2022/06/20 12:54:49;;;;;;;8.23;4.83;;;21.50;99.90;;;;;;4857375;29;20288;-72
2022/06/20 12:57:31;;;;;;;7.90;4.97;;;21.50;99.90;;;;;;4861047;29;20206;-74
2022/06/20 13:00:24;;;;;;;8.03;4.43;;;21.50;99.90;;;;;;4861652;29;20644;-76
2022/06/20 13:03:12;;;;;;;9.50;4.67;;;21.40;99.90;;;;;;4861228;29;20297;-72
2022/06/20 13:05:50;;;;;;;14.33;5.20;;;21.40;99.90;;;;;;4860976;29;20215;-72
2022/06/20 13:08:41;;;;;;;8.30;5.17;;;21.30;99.90;;;;;;4861145;29;20295;-74
2022/06/20 13:11:22;;;;;;;9.27;5.40;;;21.10;99.90;;;;;;4845595;29;20308;-77
2022/06/20 13:14:08;;;;;;;9.80;5.50;;;20.90;99.90;;;;;;4861896;29;20607;-80
2022/06/20 13:17:00;;;;;;;13.67;5.80;;;20.50;99.90;;;;;;4869672;29;20193;-78
2022/06/20 13:19:48;;;;;;;13.80;6.33;;;20.40;99.90;;;;;;4867091;29;20277;-74
2022/06/20 13:22:33;;;;;;;14.07;5.87;;;20.20;99.90;;;;;;4865477;29;20299;-79
2022/06/20 13:25:30;;;;;;;13.63;6.60;;;20.20;99.90;;;;;;4926403;28;20234;-79
2022/06/20 13:28:19;;;;;;;11.23;6.40;;;19.90;99.90;;;;;;4995893;28;20216;-72
2022/06/20 13:31:16;;;;;;;11.60;7.00;;;19.80;99.90;;;;;;4997133;28;20254;-75
2022/06/20 13:34:26;;;;;;;12.70;6.77;;;19.70;99.90;;;;;;4981733;28;20214;-76
2022/06/20 13:36:59;;;;;;;14.93;6.97;;;19.60;99.90;;;;;;4981549;28;20200;-80
2022/06/20 13:40:16;;;;;;;14.70;7.17;;;19.50;99.90;;;;;;4998219;28;20247;-75
2022/06/20 13:43:05;;;;;;;11.87;7.17;;;19.50;99.90;;;;;;4812458;29;20202;-80
2022/06/20 13:45:58;;;;;;;13.43;7.23;;;19.40;99.90;;;;;;4827786;29;20219;-75
2022/06/20 13:49:11;;;;;;;13.17;7.53;;;19.40;99.90;;;;;;4827284;29;20210;-74
2022/06/20 13:51:46;;;;;;;12.47;7.30;;;19.40;99.90;;;;;;4841150;29;20325;-73
2022/06/20 13:54:36;;;;;;;15.83;8.30;;;19.40;99.90;;;;;;4841616;29;20274;-76
2022/06/20 13:57:21;;;;;;;14.33;8.57;;;19.50;99.90;;;;;;4790696;29;20208;-71
2022/06/20 14:00:07;;;;;;;11.73;8.40;;;19.30;99.90;;;;;;4791295;29;20207;-79